This is the latest recevied weather packets stored in our database for station/object NY3Q. If no packets are shown the sender has not sent any weather packets the latest 10 day(s).
| Time | Temp. | Humidity | Pressure | Rain* | Wind** | Luminosity | Snow |
|---|---|---|---|---|---|---|---|
| 1777693534 | 20.56° C | 83% | 1011.7 hPa | 0 mm | - | 0 W/m² | - |
| 1777693232 | 20.56° C | 82% | 1011.8 hPa | 0 mm | - | 0 W/m² | - |
| 1777692930 | 20.56° C | 83% | 1011.8 hPa | 0 mm | - | 0 W/m² | - |
| 1777692627 | 20.56° C | 82% | 1011.8 hPa | 0 mm | - | 0 W/m² | - |
| 1777692323 | 21.11° C | 81% | 1012.1 hPa | 0 mm | - | 0 W/m² | - |
| 1777692020 | 21.11° C | 81% | 1011.6 hPa | 0 mm | - | 0 W/m² | - |
| 1777691718 | 21.11° C | 80% | 1011.6 hPa | 0 mm | - | 0 W/m² | - |
| 1777691415 | 21.67° C | 80% | 1011.7 hPa | 0 mm | - | 0 W/m² | - |
| 1777691114 | 21.67° C | 80% | 1011.7 hPa | 0 mm | - | 0 W/m² | - |
| 1777690812 | 21.67° C | 80% | 1011.4 hPa | 0 mm | - | 0 W/m² | - |
| 1777690509 | 21.67° C | 79% | 1011.7 hPa | 0 mm | - | 0 W/m² | - |
| 1777690207 | 21.67° C | 79% | 1012.1 hPa | 0 mm | - | 0 W/m² | - |
| 1777689904 | 21.67° C | 79% | 1012.1 hPa | 0 mm | - | 0 W/m² | - |
| 1777689602 | 21.67° C | 78% | 1012.3 hPa | 0 mm | - | 0 W/m² | - |
| 1777689299 | 21.67° C | 78% | 1012.1 hPa | 0 mm | - | 0 W/m² | - |
| 1777688997 | 21.67° C | 77% | 1012.4 hPa | 0 mm | - | 0 W/m² | - |
| 1777688693 | 21.67° C | 77% | 1012.1 hPa | 0 mm | - | 0 W/m² | - |
| 1777674149 | 25.56° C | 74% | 1009.8 hPa | 0 mm | - | 56 W/m² | - |
| 1777673845 | 25.56° C | 72% | 1010 hPa | 0 mm | - | 45 W/m² | - |
| 1777673543 | 25.56° C | 71% | 1010.1 hPa | 0 mm | - | 55 W/m² | - |
| 1777673240 | 25.56° C | 70% | 1010.1 hPa | 0 mm | - | 53 W/m² | - |
| 1777672330 | 26.11° C | 69% | 1009.7 hPa | 0 mm | - | 35 W/m² | - |
| 1777671721 | 26.67° C | 67% | 1009.6 hPa | 0 mm | - | 46 W/m² | - |
| 1777671417 | 26.67° C | 66% | 1009.7 hPa | 0 mm | - | 42 W/m² | - |
| 1777670810 | 30° C | 58% | 1009.5 hPa | 0 mm | - | 79 W/m² | - |
* Rain latest hour (hover to see other rain measurements)
** Current wind speed in m/s (hover to see current wind gust speed)